createdAt,value
2023-02-11T19:58:36.787Z,38.80
2023-02-11T20:01:12.406Z,40.40
2023-02-11T20:03:42.621Z,37.30
2023-02-11T20:06:17.113Z,39.00
2023-02-11T20:08:45.542Z,39.90
2023-02-11T20:11:17.851Z,38.80
2023-02-11T20:13:45.675Z,38.10
2023-02-11T20:16:18.899Z,42.90
2023-02-11T20:21:49.738Z,42.20
2023-02-11T20:24:18.664Z,38.70
2023-02-11T20:26:48.695Z,41.60
2023-02-11T20:29:17.551Z,41.20
2023-02-11T20:34:17.782Z,50.60
2023-02-11T20:36:52.401Z,46.70
2023-02-11T20:39:22.373Z,49.50
2023-02-11T20:41:52.020Z,42.90
2023-02-11T20:44:24.352Z,45.10
2023-02-11T20:46:54.219Z,44.30
2023-02-11T20:49:24.517Z,59.60
2023-02-11T20:51:54.171Z,89.70
2023-02-11T20:54:23.692Z,49.80
2023-02-11T20:56:54.039Z,58.40
2023-02-11T20:59:23.391Z,63.50
2023-02-11T21:01:56.229Z,67.50
2023-02-11T21:04:27.555Z,78.40
2023-02-11T21:06:59.214Z,98.70
2023-02-11T21:09:30.784Z,108.10
2023-02-11T21:11:58.920Z,82.60
2023-02-11T21:14:27.227Z,70.40
2023-02-11T21:16:55.313Z,67.20
2023-02-11T21:19:23.270Z,103.60
2023-02-11T21:21:55.220Z,56.20
2023-02-11T21:24:23.801Z,59.50
2023-02-11T21:26:52.102Z,58.30
2023-02-11T21:29:19.836Z,59.70
2023-02-11T21:31:47.742Z,55.80
2023-02-11T21:34:16.348Z,77.20
2023-02-11T21:36:45.415Z,60.40
2023-02-11T21:39:13.909Z,56.00
2023-02-11T21:41:42.168Z,55.10
2023-02-11T21:44:10.050Z,55.30
2023-02-11T21:46:38.836Z,53.70
2023-02-11T21:49:06.713Z,52.10
2023-02-11T21:51:34.856Z,53.50
2023-02-11T21:54:03.371Z,72.20
2023-02-11T21:56:35.541Z,85.20
2023-02-11T21:59:03.889Z,88.00
2023-02-11T22:01:35.386Z,65.10
2023-02-11T22:04:03.816Z,57.00
2023-02-11T22:06:34.152Z,57.90
2023-02-11T22:09:07.126Z,55.30
2023-02-11T22:11:36.400Z,73.80
2023-02-11T22:14:04.595Z,66.80
2023-02-11T22:16:33.146Z,76.20
2023-02-11T22:19:02.556Z,73.20
2023-02-11T22:21:30.446Z,59.30
2023-02-11T22:23:58.949Z,77.90
2023-02-11T22:26:28.577Z,58.60
2023-02-11T22:28:57.312Z,53.30
2023-02-11T22:31:29.172Z,61.10
2023-02-11T22:33:58.241Z,53.90
2023-02-11T22:36:29.287Z,52.10
2023-02-11T22:39:01.847Z,50.90
2023-02-11T22:41:30.465Z,50.50
2023-02-11T22:43:58.393Z,51.70
2023-02-11T22:46:26.699Z,54.50
2023-02-11T22:48:55.180Z,50.30
2023-02-11T22:51:25.500Z,48.80
2023-02-11T22:53:56.971Z,51.30
2023-02-11T22:56:26.368Z,50.40
2023-02-11T22:58:57.850Z,53.00
2023-02-11T23:01:26.621Z,51.20
2023-02-11T23:03:54.810Z,52.30
2023-02-11T23:06:23.361Z,49.70
2023-02-11T23:08:51.628Z,53.00
2023-02-11T23:11:30.984Z,58.00
2023-02-11T23:13:59.456Z,59.70
2023-02-11T23:16:31.244Z,78.30
2023-02-11T23:19:05.076Z,72.20
2023-02-11T23:21:53.039Z,81.70
2023-02-11T23:24:21.104Z,77.90
2023-02-11T23:26:49.002Z,84.80
2023-02-11T23:29:17.488Z,79.60
2023-02-11T23:31:46.609Z,59.70
2023-02-11T23:34:23.890Z,73.60
2023-02-11T23:36:53.037Z,77.20
2023-02-11T23:39:20.904Z,73.90
2023-02-11T23:41:52.398Z,67.80
2023-02-11T23:44:20.222Z,58.30
2023-02-11T23:46:48.087Z,56.00
2023-02-11T23:49:15.852Z,58.60
2023-02-11T23:51:43.623Z,53.00
2023-02-11T23:54:15.165Z,60.20
2023-02-11T23:56:43.852Z,55.70
2023-02-11T23:59:11.996Z,54.80
